createdAt,value
2019-06-26T00:00:48.418Z,421.20
2019-06-26T00:01:48.446Z,423.26
2019-06-26T00:02:48.404Z,423.03
2019-06-26T00:03:48.400Z,424.09
2019-06-26T00:04:48.380Z,422.21
2019-06-26T00:05:48.394Z,421.37
2019-06-26T00:06:48.365Z,423.18
2019-06-26T00:07:48.368Z,421.12
2019-06-26T00:08:48.379Z,420.98
2019-06-26T00:09:48.329Z,422.96
2019-06-26T00:10:48.314Z,423.54
2019-06-26T00:11:48.313Z,421.93
2019-06-26T00:12:48.334Z,422.69
2019-06-26T00:13:48.306Z,419.52
2019-06-26T00:14:48.288Z,420.78
2019-06-26T00:15:48.300Z,421.18
2019-06-26T00:16:48.301Z,426.49
2019-06-26T00:17:48.300Z,423.15
2019-06-26T00:18:48.260Z,422.65
2019-06-26T00:19:48.284Z,422.46
2019-06-26T00:20:48.214Z,422.26
2019-06-26T00:21:48.198Z,418.99
2019-06-26T00:22:48.190Z,421.36
2019-06-26T00:23:48.239Z,422.23
2019-06-26T00:24:48.198Z,420.33
2019-06-26T00:25:48.166Z,421.16
2019-06-26T00:26:48.153Z,422.59
2019-06-26T00:27:48.123Z,422.05
2019-06-26T00:28:48.148Z,422.15
2019-06-26T00:29:48.151Z,424.27
2019-06-26T00:30:48.101Z,422.14
2019-06-26T00:31:48.106Z,421.71
2019-06-26T00:32:48.071Z,421.08
2019-06-26T00:33:48.084Z,422.47
2019-06-26T00:34:48.082Z,424.02
2019-06-26T00:35:48.064Z,421.46
2019-06-26T00:36:48.055Z,420.20
2019-06-26T00:37:48.032Z,425.13
2019-06-26T00:38:48.036Z,422.27
2019-06-26T00:39:48.066Z,421.89
2019-06-26T00:40:47.992Z,424.72
2019-06-26T00:41:47.989Z,423.87
2019-06-26T00:42:47.987Z,422.96
2019-06-26T00:43:47.952Z,423.29
2019-06-26T00:44:48.000Z,423.14
2019-06-26T00:45:47.941Z,422.26
2019-06-26T00:46:47.946Z,423.90
2019-06-26T00:47:47.935Z,424.88
2019-06-26T00:48:47.898Z,421.88
2019-06-26T00:49:47.910Z,421.84
2019-06-26T00:50:47.927Z,420.47
2019-06-26T00:51:47.879Z,421.21
2019-06-26T00:52:47.881Z,422.72
2019-06-26T00:53:47.890Z,420.02
2019-06-26T00:54:47.874Z,423.08
2019-06-26T00:55:47.877Z,422.41
2019-06-26T00:56:47.834Z,420.89
2019-06-26T00:57:47.803Z,421.15
2019-06-26T00:58:47.858Z,421.41
2019-06-26T00:59:48.692Z,421.21
2019-06-26T01:00:47.775Z,423.27
2019-06-26T01:01:47.844Z,420.50
2019-06-26T01:02:47.827Z,422.80
2019-06-26T01:03:47.741Z,421.46
2019-06-26T01:04:47.726Z,423.58
2019-06-26T01:05:47.736Z,421.26
2019-06-26T01:06:47.793Z,421.45
2019-06-26T01:07:47.716Z,422.84
2019-06-26T01:08:47.691Z,421.70
2019-06-26T01:09:47.786Z,422.77
2019-06-26T01:10:47.672Z,422.02
2019-06-26T01:11:47.761Z,422.12
2019-06-26T01:12:47.637Z,420.98
2019-06-26T01:13:57.810Z,422.54
2019-06-26T01:14:48.627Z,423.80
2019-06-26T01:15:47.620Z,422.05
2019-06-26T01:16:47.607Z,423.18
2019-06-26T01:17:47.629Z,425.65
2019-06-26T01:18:47.593Z,423.02
2019-06-26T01:19:48.182Z,421.50
2019-06-26T01:20:47.561Z,421.45
2019-06-26T01:21:47.622Z,423.89
2019-06-26T01:22:47.573Z,420.76
2019-06-26T01:23:47.530Z,422.03
2019-06-26T01:24:47.529Z,423.74
2019-06-26T01:25:47.568Z,421.14
2019-06-26T01:26:47.513Z,424.67
2019-06-26T01:27:47.518Z,422.45
2019-06-26T01:28:47.483Z,423.45
2019-06-26T01:29:47.535Z,426.12
2019-06-26T01:30:47.460Z,422.08
2019-06-26T01:31:47.445Z,421.25
2019-06-26T01:32:47.448Z,421.96
2019-06-26T01:33:47.446Z,421.60
2019-06-26T01:34:47.469Z,424.10
2019-06-26T01:35:47.406Z,422.61
2019-06-26T01:36:47.393Z,423.97
2019-06-26T01:37:47.397Z,423.90
2019-06-26T01:38:47.384Z,423.56
2019-06-26T01:39:47.373Z,423.77
2019-06-26T01:40:47.341Z,421.73
2019-06-26T01:41:47.340Z,421.47
2019-06-26T01:42:47.326Z,423.32
2019-06-26T01:43:47.323Z,423.00
2019-06-26T01:44:47.315Z,420.49
2019-06-26T01:45:47.340Z,423.56
2019-06-26T01:46:47.329Z,421.52
2019-06-26T01:47:47.297Z,423.34
2019-06-26T01:48:47.255Z,422.93
2019-06-26T01:49:47.268Z,425.20
2019-06-26T01:50:47.341Z,422.47
2019-06-26T01:51:47.437Z,423.43
2019-06-26T01:52:47.258Z,422.14
2019-06-26T01:53:47.229Z,420.79
2019-06-26T01:54:47.267Z,425.70
2019-06-26T01:55:47.205Z,421.93
2019-06-26T01:56:47.174Z,421.05
2019-06-26T01:57:47.176Z,423.70
2019-06-26T01:58:47.191Z,425.08
2019-06-26T01:59:47.199Z,423.74
2019-06-26T02:00:47.170Z,420.76
2019-06-26T02:01:47.122Z,422.72
2019-06-26T02:02:47.127Z,421.42
2019-06-26T02:03:47.119Z,422.49
2019-06-26T02:04:47.129Z,422.75
2019-06-26T02:05:47.340Z,422.44
2019-06-26T02:06:47.077Z,422.81
2019-06-26T02:07:47.074Z,423.64
2019-06-26T02:08:47.375Z,424.59
2019-06-26T02:09:47.056Z,419.53
2019-06-26T02:10:47.022Z,425.41
2019-06-26T02:11:47.135Z,424.04
2019-06-26T02:12:47.002Z,422.98
2019-06-26T02:13:47.012Z,420.05
2019-06-26T02:14:46.980Z,423.87
2019-06-26T02:15:46.967Z,422.36
2019-06-26T02:16:46.956Z,419.42
2019-06-26T02:17:46.957Z,419.96
2019-06-26T02:18:46.945Z,420.27
2019-06-26T02:19:46.963Z,421.17
2019-06-26T02:20:46.932Z,423.70
2019-06-26T02:21:46.992Z,422.47
2019-06-26T02:22:49.540Z,421.61
2019-06-26T02:23:46.903Z,421.56
2019-06-26T02:24:46.870Z,422.85
2019-06-26T02:25:46.862Z,420.63
2019-06-26T02:26:46.886Z,421.59
2019-06-26T02:27:46.902Z,425.17
2019-06-26T02:28:46.841Z,424.06
2019-06-26T02:29:46.838Z,421.21
2019-06-26T02:30:46.816Z,422.61
2019-06-26T02:31:46.859Z,420.79
2019-06-26T02:32:46.780Z,421.77
2019-06-26T02:33:46.820Z,422.90
2019-06-26T02:34:46.780Z,424.05
2019-06-26T02:35:46.762Z,420.98
2019-06-26T02:36:46.793Z,420.10
2019-06-26T02:37:46.765Z,422.98
2019-06-26T02:38:46.711Z,421.77
2019-06-26T02:39:46.752Z,422.13
2019-06-26T02:40:46.719Z,424.33
2019-06-26T02:41:46.697Z,421.15
2019-06-26T02:42:46.697Z,423.47
2019-06-26T02:43:46.728Z,420.23
2019-06-26T02:44:53.381Z,419.97
2019-06-26T02:45:47.639Z,423.42
2019-06-26T02:46:46.663Z,422.23
2019-06-26T02:47:46.634Z,424.90
2019-06-26T02:48:46.647Z,420.00
2019-06-26T02:49:46.611Z,423.74
2019-06-26T02:50:46.592Z,422.37
2019-06-26T02:51:46.693Z,421.57
2019-06-26T02:52:46.572Z,424.20
2019-06-26T02:53:46.651Z,419.96
2019-06-26T02:54:46.589Z,423.73
2019-06-26T02:55:46.576Z,423.37
2019-06-26T02:56:46.588Z,423.37
2019-06-26T02:57:46.540Z,421.96
2019-06-26T02:58:46.535Z,426.07
2019-06-26T02:59:46.548Z,420.48
2019-06-26T03:00:46.497Z,420.87
2019-06-26T03:01:46.489Z,421.61
2019-06-26T03:02:46.495Z,419.70
2019-06-26T03:03:46.469Z,425.91
2019-06-26T03:04:46.454Z,422.44
2019-06-26T03:05:46.487Z,424.53
2019-06-26T03:06:46.446Z,421.33
2019-06-26T03:07:46.431Z,419.27
2019-06-26T03:08:46.434Z,424.51
2019-06-26T03:09:46.425Z,425.53
2019-06-26T03:10:46.400Z,423.93
2019-06-26T03:11:46.385Z,419.29
2019-06-26T03:12:46.472Z,421.92
2019-06-26T03:13:46.360Z,421.54
2019-06-26T03:14:46.349Z,425.69
2019-06-26T03:15:50.190Z,421.90
2019-06-26T03:16:46.333Z,420.66
2019-06-26T03:17:55.423Z,423.54
2019-06-26T03:18:47.303Z,424.12
2019-06-26T03:19:46.286Z,425.21
2019-06-26T03:20:46.328Z,421.63
2019-06-26T03:21:46.271Z,423.54
2019-06-26T03:22:46.277Z,425.90
2019-06-26T03:23:46.273Z,425.99
2019-06-26T03:24:46.252Z,424.67
2019-06-26T03:25:46.283Z,421.57
2019-06-26T03:26:46.248Z,425.39
2019-06-26T03:27:46.228Z,423.32
2019-06-26T03:28:46.744Z,421.89
2019-06-26T03:29:46.276Z,425.86
2019-06-26T03:30:46.228Z,421.84
2019-06-26T03:31:46.240Z,427.58
2019-06-26T03:32:46.202Z,423.31
2019-06-26T03:33:46.145Z,421.74
2019-06-26T03:34:46.175Z,423.22
2019-06-26T03:35:46.171Z,422.97
2019-06-26T03:36:46.152Z,425.98
2019-06-26T03:37:46.122Z,421.58
2019-06-26T03:38:46.105Z,419.86
2019-06-26T03:39:46.090Z,422.60
2019-06-26T03:40:46.093Z,420.20
2019-06-26T03:41:46.106Z,425.37
2019-06-26T03:42:46.116Z,422.65
2019-06-26T03:43:46.055Z,422.35
2019-06-26T03:44:46.030Z,424.68
2019-06-26T03:45:46.108Z,424.62
2019-06-26T03:46:46.107Z,424.13
2019-06-26T03:47:46.035Z,422.79
2019-06-26T03:48:46.010Z,420.88
2019-06-26T03:49:45.979Z,422.11
2019-06-26T03:50:45.961Z,421.77
2019-06-26T03:51:46.008Z,421.10
2019-06-26T03:52:45.980Z,419.38
2019-06-26T03:53:45.977Z,422.54
2019-06-26T03:54:45.933Z,422.65
2019-06-26T03:55:45.942Z,418.60
2019-06-26T03:56:45.890Z,421.52
2019-06-26T03:57:45.904Z,419.85
2019-06-26T03:58:46.005Z,424.00
2019-06-26T03:59:45.889Z,419.54
2019-06-26T04:00:45.871Z,421.86
2019-06-26T04:01:45.846Z,420.11
2019-06-26T04:02:45.944Z,421.70
2019-06-26T04:03:45.875Z,421.95
2019-06-26T04:04:45.826Z,422.57
2019-06-26T04:05:45.820Z,422.41
2019-06-26T04:06:45.802Z,422.28
2019-06-26T04:07:45.791Z,420.11
2019-06-26T04:08:45.868Z,418.75
2019-06-26T04:09:45.756Z,421.51
2019-06-26T04:10:45.747Z,419.57
2019-06-26T04:11:46.768Z,419.98
2019-06-26T04:12:45.807Z,420.51
2019-06-26T04:13:45.754Z,418.53
2019-06-26T04:14:45.727Z,419.13
2019-06-26T04:15:45.699Z,418.81
2019-06-26T04:16:45.685Z,422.23
2019-06-26T04:17:45.789Z,421.15
2019-06-26T04:18:45.771Z,419.12
2019-06-26T04:19:45.728Z,419.63
2019-06-26T04:20:45.645Z,418.69
2019-06-26T04:21:45.663Z,420.05
2019-06-26T04:22:48.747Z,417.61
2019-06-26T04:23:45.605Z,418.30
2019-06-26T04:24:45.598Z,420.02
2019-06-26T04:25:45.598Z,419.56
2019-06-26T04:26:45.608Z,420.62
2019-06-26T04:27:45.567Z,421.32
2019-06-26T04:28:45.556Z,422.69
2019-06-26T04:29:45.573Z,427.82
2019-06-26T04:30:46.251Z,425.15
2019-06-26T04:31:45.524Z,424.53
2019-06-26T04:32:48.398Z,423.28
2019-06-26T04:33:45.555Z,422.89
2019-06-26T04:34:45.529Z,425.29
2019-06-26T04:35:47.298Z,422.63
2019-06-26T04:36:45.461Z,422.93
2019-06-26T04:37:46.025Z,421.46
2019-06-26T04:38:49.947Z,421.35
2019-06-26T04:39:45.443Z,421.40
2019-06-26T04:40:45.467Z,423.97
2019-06-26T04:41:45.446Z,422.40
2019-06-26T04:42:49.791Z,421.54
2019-06-26T04:43:56.883Z,423.02
2019-06-26T04:44:48.591Z,423.50
2019-06-26T04:45:57.753Z,423.46
2019-06-26T04:46:46.365Z,422.10
2019-06-26T04:47:45.435Z,425.19
2019-06-26T04:48:45.448Z,422.91
2019-06-26T04:49:48.102Z,422.93
2019-06-26T04:50:50.603Z,426.50
2019-06-26T04:51:49.110Z,428.53
2019-06-26T04:52:47.231Z,428.82
2019-06-26T04:53:48.026Z,426.14
2019-06-26T04:54:48.213Z,423.90
2019-06-26T04:55:46.257Z,425.19
2019-06-26T04:56:58.130Z,423.71
2019-06-26T04:57:45.255Z,428.80
2019-06-26T04:58:45.243Z,428.23
2019-06-26T04:59:45.214Z,429.18
2019-06-26T05:00:45.205Z,425.31
2019-06-26T05:01:45.203Z,423.59
2019-06-26T05:02:45.192Z,428.47
2019-06-26T05:03:45.219Z,425.12
2019-06-26T05:04:45.187Z,424.77
2019-06-26T05:05:45.373Z,427.30
2019-06-26T05:06:45.310Z,423.69
2019-06-26T05:07:45.687Z,425.95
2019-06-26T05:08:45.547Z,423.55
2019-06-26T05:09:47.417Z,423.09
2019-06-26T05:10:51.268Z,422.21
2019-06-26T05:11:45.975Z,422.62
2019-06-26T05:12:45.094Z,423.22
2019-06-26T05:13:45.063Z,424.49
2019-06-26T05:14:45.062Z,423.06
2019-06-26T05:15:45.066Z,426.25
2019-06-26T05:16:45.039Z,423.54
2019-06-26T05:17:45.041Z,426.60
2019-06-26T05:18:45.013Z,422.77
2019-06-26T05:19:45.057Z,424.17
2019-06-26T05:20:45.009Z,422.63
2019-06-26T05:21:45.033Z,425.65
2019-06-26T05:22:44.977Z,426.40
2019-06-26T05:23:44.983Z,426.61
2019-06-26T05:24:46.536Z,423.25
2019-06-26T05:25:45.050Z,427.47
2019-06-26T05:26:45.067Z,425.13
2019-06-26T05:27:44.920Z,423.99
2019-06-26T05:28:44.916Z,423.40
2019-06-26T05:29:44.921Z,424.07
2019-06-26T05:30:44.961Z,424.24
2019-06-26T05:31:44.941Z,424.35
2019-06-26T05:32:44.900Z,423.73
2019-06-26T05:33:44.899Z,428.38
2019-06-26T05:34:44.854Z,428.92
2019-06-26T05:37:03.307Z,426.26
2019-06-26T05:38:05.877Z,424.17
2019-06-26T05:39:04.218Z,423.82
2019-06-26T05:40:03.139Z,426.11
2019-06-26T05:41:03.034Z,426.85
2019-06-26T05:42:06.562Z,427.68
2019-06-26T05:44:20.432Z,428.62
2019-06-26T05:45:20.092Z,428.45
2019-06-26T05:46:30.592Z,426.67
2019-06-26T05:47:22.099Z,424.96
2019-06-26T05:48:20.005Z,427.25
2019-06-26T05:49:20.022Z,424.95
2019-06-26T05:50:19.969Z,425.32
2019-06-26T05:51:19.958Z,424.05
2019-06-26T05:52:20.015Z,425.73
2019-06-26T05:53:19.956Z,424.97
2019-06-26T05:54:19.962Z,428.27
2019-06-26T05:55:19.952Z,425.54
2019-06-26T05:56:19.926Z,425.02
2019-06-26T05:57:19.946Z,427.16
2019-06-26T05:58:19.954Z,427.66
2019-06-26T05:59:19.954Z,431.12
2019-06-26T06:00:19.931Z,424.73
2019-06-26T06:01:19.899Z,426.62
2019-06-26T06:02:19.903Z,428.60
2019-06-26T06:03:19.865Z,426.27
2019-06-26T06:04:19.861Z,427.33
2019-06-26T06:05:19.850Z,428.20
2019-06-26T06:06:19.842Z,425.20
2019-06-26T06:07:19.833Z,426.84
2019-06-26T06:08:19.833Z,426.80
2019-06-26T06:09:19.795Z,428.76
2019-06-26T06:10:19.781Z,424.72
2019-06-26T06:11:19.948Z,427.46
2019-06-26T06:12:19.761Z,428.71
2019-06-26T06:13:19.751Z,428.27
2019-06-26T06:14:19.755Z,426.73
2019-06-26T06:15:19.741Z,427.45
2019-06-26T06:16:19.757Z,430.61
2019-06-26T06:17:19.705Z,427.35
2019-06-26T06:18:19.692Z,429.94
2019-06-26T06:19:19.812Z,429.67
2019-06-26T06:20:19.744Z,426.64
2019-06-26T06:21:19.659Z,429.52
2019-06-26T06:22:19.655Z,427.72
2019-06-26T06:23:19.709Z,426.34
2019-06-26T06:24:19.703Z,427.51
2019-06-26T06:25:21.486Z,426.18
2019-06-26T06:26:19.669Z,427.46
2019-06-26T06:27:19.602Z,427.06
2019-06-26T06:28:19.622Z,427.13
2019-06-26T06:29:19.651Z,427.77
2019-06-26T06:30:19.584Z,427.43
2019-06-26T06:31:19.546Z,428.25
2019-06-26T06:32:19.548Z,429.08
2019-06-26T06:33:19.535Z,429.32
2019-06-26T06:34:19.512Z,427.90
2019-06-26T06:35:19.556Z,427.14
2019-06-26T06:36:19.532Z,429.38
2019-06-26T06:37:19.493Z,428.31
2019-06-26T06:38:19.479Z,428.72
2019-06-26T06:39:19.481Z,429.26
2019-06-26T06:40:19.450Z,432.13
2019-06-26T06:41:19.496Z,428.82
2019-06-26T06:42:19.422Z,427.72
2019-06-26T06:43:19.423Z,427.78
2019-06-26T06:44:19.422Z,432.01
2019-06-26T06:45:19.472Z,427.05
2019-06-26T06:46:19.435Z,429.70
2019-06-26T06:47:19.377Z,430.96
2019-06-26T06:48:19.387Z,429.44
2019-06-26T06:49:19.363Z,426.92
2019-06-26T06:50:19.392Z,426.63
2019-06-26T06:51:19.359Z,428.07
2019-06-26T06:52:19.339Z,427.54
2019-06-26T06:53:19.333Z,429.95
2019-06-26T06:54:19.387Z,424.77
2019-06-26T06:55:19.352Z,428.50
2019-06-26T06:56:19.330Z,430.59
2019-06-26T06:57:19.309Z,428.08
2019-06-26T06:58:19.281Z,429.22
2019-06-26T06:59:19.248Z,430.19
2019-06-26T07:00:19.256Z,429.27
2019-06-26T07:01:19.232Z,428.87
2019-06-26T07:02:19.227Z,427.72
2019-06-26T07:03:19.299Z,431.87
2019-06-26T07:04:19.262Z,427.92
2019-06-26T07:05:19.214Z,426.90
2019-06-26T07:06:19.190Z,429.23
2019-06-26T07:07:19.266Z,430.32
2019-06-26T07:08:19.189Z,430.37
2019-06-26T07:09:19.192Z,428.19
2019-06-26T07:10:19.163Z,431.35
2019-06-26T07:11:19.154Z,430.15
2019-06-26T07:12:20.919Z,431.06
2019-06-26T07:13:19.127Z,430.98
2019-06-26T07:14:19.120Z,427.26
2019-06-26T07:15:19.104Z,434.27
2019-06-26T07:16:19.103Z,428.78
2019-06-26T07:17:21.105Z,431.11
2019-06-26T07:18:19.133Z,429.44
2019-06-26T07:19:19.055Z,429.30
2019-06-26T07:20:19.064Z,431.15
2019-06-26T07:21:19.058Z,431.25
2019-06-26T07:22:19.026Z,435.52
2019-06-26T07:23:19.086Z,430.97
2019-06-26T07:24:19.003Z,428.32
2019-06-26T07:25:19.003Z,430.50
2019-06-26T07:26:19.015Z,427.44
2019-06-26T07:27:18.962Z,426.19
2019-06-26T07:28:19.029Z,429.48
2019-06-26T07:29:18.996Z,428.22
2019-06-26T07:30:18.941Z,430.77
2019-06-26T07:31:18.992Z,429.06
2019-06-26T07:32:18.908Z,429.25
2019-06-26T07:33:18.907Z,429.24
2019-06-26T07:34:18.916Z,429.93
2019-06-26T07:35:18.878Z,432.88
2019-06-26T07:36:18.891Z,430.16
2019-06-26T07:37:18.903Z,430.76
2019-06-26T07:38:18.879Z,432.05
2019-06-26T07:39:18.848Z,433.81
2019-06-26T07:40:18.833Z,431.80
2019-06-26T07:41:18.820Z,429.02
2019-06-26T07:42:18.826Z,433.80
2019-06-26T07:43:18.835Z,432.29
2019-06-26T07:44:18.794Z,430.94
2019-06-26T07:45:18.819Z,431.40
2019-06-26T07:46:18.785Z,436.94
2019-06-26T07:47:23.518Z,430.14
2019-06-26T07:48:19.755Z,431.27
2019-06-26T07:49:18.756Z,429.94
2019-06-26T07:50:18.755Z,430.97
2019-06-26T07:51:18.993Z,428.62
2019-06-26T07:52:18.699Z,429.71
2019-06-26T07:53:18.763Z,430.60
2019-06-26T07:54:18.704Z,430.52
2019-06-26T07:55:18.714Z,431.51
2019-06-26T07:56:18.679Z,430.67
2019-06-26T07:57:19.398Z,432.27
2019-06-26T07:58:18.671Z,431.53
2019-06-26T07:59:19.016Z,432.82
2019-06-26T08:00:18.646Z,433.59
2019-06-26T08:01:18.637Z,431.82
2019-06-26T08:02:18.625Z,429.85
2019-06-26T08:03:18.660Z,431.30
2019-06-26T08:04:18.583Z,429.59
2019-06-26T08:05:18.578Z,429.97
2019-06-26T08:06:18.594Z,432.39
2019-06-26T08:07:18.565Z,440.84
2019-06-26T08:08:19.005Z,432.44
2019-06-26T08:09:18.525Z,434.07
2019-06-26T08:10:18.562Z,431.11
2019-06-26T08:11:18.510Z,430.37
2019-06-26T08:12:18.502Z,431.66
2019-06-26T08:13:18.554Z,433.55
2019-06-26T08:14:18.498Z,431.74
2019-06-26T08:15:18.551Z,432.39
2019-06-26T08:16:18.460Z,432.09
2019-06-26T08:17:18.491Z,433.23
2019-06-26T08:18:18.549Z,434.17
2019-06-26T08:19:18.442Z,432.17
2019-06-26T08:20:18.434Z,431.10
2019-06-26T08:21:18.414Z,432.18
2019-06-26T08:22:18.613Z,432.24
2019-06-26T08:23:18.392Z,435.05
2019-06-26T08:24:18.377Z,434.46
2019-06-26T08:25:18.379Z,435.67
2019-06-26T08:26:18.373Z,434.27
2019-06-26T08:27:18.367Z,439.98
2019-06-26T08:28:18.340Z,431.97
2019-06-26T08:29:18.407Z,433.38
2019-06-26T08:30:18.399Z,433.66
2019-06-26T08:31:18.326Z,435.18
2019-06-26T08:32:18.342Z,434.95
2019-06-26T08:33:18.295Z,435.33
2019-06-26T08:34:18.331Z,438.89
2019-06-26T08:35:18.380Z,436.10
2019-06-26T08:36:18.318Z,433.85
2019-06-26T08:37:18.343Z,437.29
2019-06-26T08:38:18.229Z,434.75
2019-06-26T08:39:18.257Z,434.14
2019-06-26T08:40:18.442Z,433.27
2019-06-26T08:41:18.210Z,433.69
2019-06-26T08:42:18.247Z,434.05
2019-06-26T08:43:18.205Z,434.85
2019-06-26T08:44:18.166Z,434.85
2019-06-26T08:45:18.185Z,433.51
2019-06-26T08:46:18.259Z,436.70
2019-06-26T08:47:18.168Z,435.73
2019-06-26T08:48:37.903Z,435.43
2019-06-26T08:49:25.603Z,433.36
2019-06-26T08:50:19.151Z,435.09
2019-06-26T08:51:18.204Z,434.06
2019-06-26T08:52:18.113Z,434.84
2019-06-26T08:53:18.911Z,433.73
2019-06-26T08:54:18.174Z,435.88
2019-06-26T08:55:18.067Z,434.88
2019-06-26T08:56:18.613Z,435.76
2019-06-26T08:57:18.039Z,434.60
2019-06-26T08:58:18.218Z,436.15
2019-06-26T08:59:18.196Z,436.61
2019-06-26T09:00:18.310Z,436.12
2019-06-26T09:01:18.041Z,434.09
2019-06-26T09:02:18.047Z,434.20
2019-06-26T09:03:18.006Z,435.02
2019-06-26T09:04:18.003Z,433.97
2019-06-26T09:05:17.964Z,434.22
2019-06-26T09:06:18.075Z,433.66
2019-06-26T09:07:17.977Z,432.32
2019-06-26T09:08:18.089Z,433.99
2019-06-26T09:09:17.939Z,433.75
2019-06-26T09:10:28.952Z,434.57
2019-06-26T09:11:18.117Z,434.42
2019-06-26T09:12:18.080Z,433.10
2019-06-26T09:13:18.083Z,436.62
2019-06-26T09:14:18.513Z,433.85
2019-06-26T09:15:17.869Z,438.07
2019-06-26T09:16:17.899Z,433.45
2019-06-26T09:17:17.893Z,434.70
2019-06-26T09:18:34.068Z,434.42
2019-06-26T09:19:18.876Z,434.42
2019-06-26T09:20:17.819Z,438.51
2019-06-26T09:21:17.845Z,435.83
2019-06-26T09:22:17.820Z,434.69
2019-06-26T09:23:18.165Z,435.65
2019-06-26T09:24:17.829Z,435.77
2019-06-26T09:25:22.179Z,433.89
2019-06-26T09:26:17.774Z,437.96
2019-06-26T09:27:18.445Z,435.97
2019-06-26T09:28:17.786Z,435.27
2019-06-26T09:29:17.764Z,434.98
2019-06-26T09:30:17.754Z,435.40
2019-06-26T09:31:17.798Z,433.80
2019-06-26T09:32:18.525Z,434.40
2019-06-26T09:33:17.687Z,434.13
2019-06-26T09:34:17.726Z,433.89
2019-06-26T09:35:17.736Z,429.98
2019-06-26T09:36:28.094Z,432.18
2019-06-26T09:37:18.408Z,434.59
2019-06-26T09:38:17.957Z,433.43
2019-06-26T09:39:18.086Z,433.14
2019-06-26T09:40:17.749Z,431.87
2019-06-26T09:41:19.453Z,432.13
2019-06-26T09:42:19.754Z,433.81
2019-06-26T09:43:17.722Z,433.53
2019-06-26T09:44:17.616Z,433.02
2019-06-26T09:45:17.587Z,431.84
2019-06-26T09:46:17.656Z,432.48
2019-06-26T09:47:17.622Z,434.87
2019-06-26T09:48:17.558Z,434.75
2019-06-26T09:49:17.581Z,434.10
2019-06-26T09:50:17.811Z,429.92
2019-06-26T09:51:17.595Z,436.30
2019-06-26T09:52:17.478Z,432.08
2019-06-26T09:53:17.987Z,436.92
2019-06-26T09:54:17.487Z,436.52
2019-06-26T09:55:17.484Z,436.57
2019-06-26T09:56:17.512Z,435.19
2019-06-26T09:57:17.468Z,435.19
2019-06-26T09:58:17.419Z,433.39
2019-06-26T09:59:17.417Z,434.08
2019-06-26T10:00:17.524Z,440.26
2019-06-26T10:01:17.473Z,437.40
2019-06-26T10:02:17.422Z,437.07
2019-06-26T10:03:17.376Z,435.50
2019-06-26T10:04:17.427Z,437.16
2019-06-26T10:05:17.523Z,438.05
2019-06-26T10:06:17.346Z,436.94
2019-06-26T10:07:17.369Z,435.64
2019-06-26T10:08:17.320Z,437.90
2019-06-26T10:09:17.335Z,435.99
2019-06-26T10:10:17.357Z,436.75
2019-06-26T10:11:17.301Z,435.56
2019-06-26T10:12:17.342Z,434.94
2019-06-26T10:13:17.283Z,435.00
2019-06-26T10:14:17.510Z,437.51
2019-06-26T10:15:17.245Z,435.97
2019-06-26T10:16:17.287Z,435.23
2019-06-26T10:17:17.250Z,439.61
2019-06-26T10:18:17.252Z,437.38
2019-06-26T10:19:17.251Z,436.67
2019-06-26T10:20:17.232Z,435.11
2019-06-26T10:21:17.556Z,440.75
2019-06-26T10:22:17.211Z,436.73
2019-06-26T10:23:18.046Z,435.38
2019-06-26T10:24:17.184Z,436.84
2019-06-26T10:25:17.188Z,436.15
2019-06-26T10:26:17.418Z,437.16
2019-06-26T10:27:17.128Z,437.63
2019-06-26T10:28:17.194Z,436.23
2019-06-26T10:29:17.247Z,437.38
2019-06-26T10:30:17.228Z,436.19
2019-06-26T10:31:18.537Z,435.51
2019-06-26T10:32:17.090Z,435.72
2019-06-26T10:33:17.072Z,434.97
2019-06-26T10:34:17.140Z,436.73
2019-06-26T10:35:17.137Z,435.32
2019-06-26T10:36:17.053Z,435.54
2019-06-26T10:37:17.057Z,436.70
2019-06-26T10:38:17.016Z,435.96
2019-06-26T10:39:17.048Z,434.87
2019-06-26T10:40:17.037Z,437.65
2019-06-26T10:41:16.994Z,438.16
2019-06-26T10:42:17.000Z,439.43
2019-06-26T10:43:17.041Z,438.26
2019-06-26T10:44:16.998Z,432.24
2019-06-26T10:45:16.942Z,431.91
2019-06-26T10:46:16.936Z,438.23
2019-06-26T10:47:16.963Z,437.60
2019-06-26T10:48:16.923Z,434.65
2019-06-26T10:49:27.117Z,433.44
2019-06-26T10:50:17.916Z,437.24
2019-06-26T10:51:18.545Z,437.12
2019-06-26T10:52:16.923Z,435.11
2019-06-26T10:53:17.502Z,432.50
2019-06-26T10:54:16.864Z,436.66
2019-06-26T10:55:16.959Z,433.70
2019-06-26T10:56:16.979Z,436.72
2019-06-26T10:57:17.502Z,437.88
2019-06-26T10:58:16.841Z,435.48
2019-06-26T10:59:16.849Z,433.78
2019-06-26T11:00:16.812Z,434.12
2019-06-26T11:01:17.626Z,436.63
2019-06-26T11:02:17.509Z,436.98
2019-06-26T11:03:16.775Z,437.27
2019-06-26T11:04:16.824Z,439.31
2019-06-26T11:05:16.817Z,431.45
2019-06-26T11:06:16.751Z,436.17
2019-06-26T11:07:16.729Z,435.90
2019-06-26T11:08:16.754Z,431.26
2019-06-26T11:09:16.697Z,434.76
2019-06-26T11:10:16.759Z,435.10
2019-06-26T11:11:16.772Z,436.44
2019-06-26T11:12:16.679Z,434.91
2019-06-26T11:13:16.687Z,438.65
2019-06-26T11:14:16.763Z,434.92
2019-06-26T11:15:16.695Z,436.86
2019-06-26T11:16:16.662Z,434.04
2019-06-26T11:17:16.651Z,438.08
2019-06-26T11:18:16.623Z,436.85
2019-06-26T11:19:16.630Z,433.33
2019-06-26T11:20:16.576Z,434.57
2019-06-26T11:21:16.594Z,431.70
2019-06-26T11:22:16.660Z,438.56
2019-06-26T11:23:16.607Z,431.71
2019-06-26T11:24:16.585Z,433.38
2019-06-26T11:25:16.568Z,436.51
2019-06-26T11:26:16.544Z,434.49
2019-06-26T11:27:16.623Z,435.31
2019-06-26T11:28:16.510Z,435.66
2019-06-26T11:29:16.504Z,431.95
2019-06-26T11:30:16.566Z,438.01
2019-06-26T11:31:16.492Z,438.67
2019-06-26T11:32:16.521Z,433.69
2019-06-26T11:33:16.475Z,435.10
2019-06-26T11:34:16.474Z,433.59
2019-06-26T11:35:16.463Z,433.26
2019-06-26T11:36:16.439Z,432.53
2019-06-26T11:56:12.052Z,432.06
2019-06-26T11:56:40.153Z,429.68
2019-06-26T11:58:15.052Z,433.48
2019-06-26T11:58:38.701Z,432.20
2019-06-26T11:59:38.372Z,431.92
2019-06-26T12:00:41.458Z,437.48
2019-06-26T12:01:42.251Z,439.13
2019-06-26T12:02:56.896Z,437.93
2019-06-26T12:03:38.290Z,429.81
2019-06-26T12:04:38.363Z,431.07
2019-06-26T12:05:39.290Z,430.23
2019-06-26T12:06:39.149Z,431.20
2019-06-26T12:07:38.299Z,431.56
2019-06-26T12:08:38.288Z,427.07
2019-06-26T12:09:38.248Z,434.50
2019-06-26T12:10:38.251Z,436.88
2019-06-26T12:11:38.262Z,427.47
2019-06-26T12:12:38.229Z,439.22
2019-06-26T12:13:38.207Z,426.43
2019-06-26T12:14:38.250Z,438.31
2019-06-26T12:15:38.670Z,432.88
2019-06-26T12:16:38.183Z,430.60
2019-06-26T12:17:38.255Z,433.43
2019-06-26T12:18:38.180Z,441.44
2019-06-26T12:19:38.163Z,439.31
2019-06-26T12:20:38.176Z,426.93
2019-06-26T12:21:38.153Z,436.15
2019-06-26T12:22:38.230Z,430.94
2019-06-26T12:23:38.134Z,435.59
2019-06-26T12:24:40.159Z,432.30
2019-06-26T12:25:38.194Z,433.56
2019-06-26T12:26:38.060Z,429.74
2019-06-26T12:27:38.070Z,435.04
2019-06-26T12:28:38.083Z,437.63
2019-06-26T12:29:38.083Z,437.17
2019-06-26T12:30:38.658Z,438.90
2019-06-26T12:31:38.111Z,435.01
2019-06-26T12:32:42.290Z,433.23
2019-06-26T12:33:39.039Z,436.85
2019-06-26T12:34:38.008Z,437.68
2019-06-26T12:35:38.008Z,437.00
2019-06-26T12:36:37.975Z,427.85
2019-06-26T12:37:38.422Z,430.15
2019-06-26T12:38:39.248Z,431.45
2019-06-26T12:39:38.009Z,433.79
2019-06-26T12:40:37.966Z,433.75
2019-06-26T12:41:37.959Z,437.62
2019-06-26T12:42:37.957Z,426.43
2019-06-26T12:43:37.962Z,432.48
2019-06-26T12:44:37.939Z,436.74
2019-06-26T12:45:37.963Z,436.55
2019-06-26T12:46:37.875Z,431.88
2019-06-26T12:47:37.866Z,440.20
2019-06-26T12:48:37.888Z,436.74
2019-06-26T12:49:38.667Z,434.45